Accueil
METAR-TAF:

METAR-TAF

Aéroports :

Aéroport international de Rabat-Salé

Rabat, Maroc

latitude: 34-03N, longitude: 006-46W, altitude: 84 m

Observation

Le bulletin a été fait il y a 42 minutes, à 07:30 UTC
Vent calme
Température 23°C
Humidité 78%
Pression 1015 hPa
Visibilité: 5000 m
Nuages fragmentés à une hauteur de 1500 ft

METAR: GMME 210730Z 00000KT 5000 BKN015 23/19 Q1015 NOSIG

Heure: 09:12 (08:12 UTC)

Prévision

Le bulletin a été fait il y a 3 heures et 12 minutes, à 05:00 UTC
Prévision valable du 21 à 06 UTC au 22 à 12 UTC
Vent kt de nord
Visibilité: 5000 m
Nuages fragmentés à une hauteur de 1500 ft
Temporairement
du 21 à 12 UTC au 21 à 18 UTC
Vent 10 kt de nord/nord-ouest
Visibilité: 6000 m
Temporairement
du 22 à 02 UTC au 22 à 06 UTC
Vent kt de nord
Visibilité: 4000 m
brume,

TAF: GMME 210500Z 2106/2212 00000KT 5000 BKN015 TEMPO 2112/2118 34010KT 6000 NSW TEMPO 2202/2206 00000KT 4000 BR

Observations et prévisions météorologiques de plus de 4000 aéroports (messages METAR et TAF).

Les stations disponibles sont représentées par des disques jaunes et rouges sur la carte.

Passer la souris dessus pour voir le nom de la station.

Cliquer dessus pour voir les observations et prévisions météorologiques.

Pour changer de carte: cliquez sur les boutons verts avec une croix noire pour zoomer, sur le bouton vert avec un tiret pour effectuer un zoom arrière, ou sur les flèches vertes pour les cartes adjacentes.


METAR-TAF: